Time;durP1;ratioP1;P1;durP2;ratioP2;P2;SDS_P1;SDS_P2;PMS_P1;PMS_P2;Temp;Humidity;BMP_temperature;BMP_pressure;BME280_temperature;BME280_humidity;BME280_pressure;Samples;Min_cycle;Max_cycle;Signal;HPM_P1;HPM_P2
2024/02/16 00:00:03;;;;;;;3.10;1.08;;;12.60;99.90;;;;;;4941784;28;20032;-80
2024/02/16 00:02:29;;;;;;;2.42;1.38;;;12.60;99.90;;;;;;4910718;28;20066;-79
2024/02/16 00:04:54;;;;;;;10.63;1.52;;;12.60;99.90;;;;;;4928333;29;20119;-79
2024/02/16 00:07:20;;;;;;;4.88;1.35;;;12.60;99.90;;;;;;4926566;29;20054;-80
2024/02/16 00:09:46;;;;;;;2.38;1.30;;;12.60;99.90;;;;;;4912655;28;20142;-79
2024/02/16 00:12:11;;;;;;;2.13;1.10;;;12.60;99.90;;;;;;4928620;28;20054;-79
2024/02/16 00:14:37;;;;;;;3.05;1.20;;;12.60;99.90;;;;;;4911393;28;20055;-79
2024/02/16 00:17:03;;;;;;;2.40;1.27;;;12.70;99.90;;;;;;4913024;28;20057;-80
2024/02/16 00:19:28;;;;;;;4.60;1.25;;;12.60;99.90;;;;;;4928800;28;20802;-80
2024/02/16 00:21:57;;;;;;;3.60;1.33;;;12.60;99.90;;;;;;4914686;29;20047;-80
2024/02/16 00:24:22;;;;;;;3.25;1.40;;;12.50;99.90;;;;;;4943817;28;20059;-80
2024/02/16 00:26:48;;;;;;;3.13;1.05;;;12.60;99.90;;;;;;4940428;28;20091;-80
2024/02/16 00:29:13;;;;;;;1.50;1.10;;;12.70;99.90;;;;;;4908323;28;20460;-80
2024/02/16 00:31:39;;;;;;;3.63;1.65;;;12.60;99.90;;;;;;4940658;28;20042;-80
2024/02/16 00:34:04;;;;;;;3.13;1.00;;;12.70;99.90;;;;;;4936946;28;20509;-80
2024/02/16 00:36:30;;;;;;;6.28;1.90;;;12.70;99.90;;;;;;4912514;28;20043;-79
2024/02/16 00:38:57;;;;;;;3.08;0.98;;;12.70;99.90;;;;;;4941430;28;20035;-79
2024/02/16 00:41:23;;;;;;;3.08;1.88;;;12.70;99.90;;;;;;4931055;28;20031;-79
2024/02/16 00:43:49;;;;;;;2.22;1.20;;;12.70;99.90;;;;;;4923397;28;20043;-80
2024/02/16 00:46:15;;;;;;;4.18;1.25;;;12.70;99.90;;;;;;4909284;28;20039;-81
2024/02/16 00:48:41;;;;;;;3.88;1.30;;;12.70;99.90;;;;;;4944357;28;20107;-82
2024/02/16 00:51:06;;;;;;;3.60;1.35;;;12.70;99.90;;;;;;4924442;28;20448;-81
2024/02/16 00:53:32;;;;;;;3.42;1.23;;;12.80;99.90;;;;;;4944110;28;20035;-81
2024/02/16 00:55:57;;;;;;;3.15;1.30;;;12.80;99.90;;;;;;4944324;28;20043;-81
2024/02/16 00:58:23;;;;;;;3.78;1.33;;;12.80;99.90;;;;;;4924183;28;20042;-81
2024/02/16 01:00:48;;;;;;;3.33;1.50;;;12.80;99.90;;;;;;4939030;28;20059;-80
2024/02/16 01:03:14;;;;;;;1.80;1.02;;;12.80;99.90;;;;;;4927289;28;20074;-82
2024/02/16 01:05:43;;;;;;;2.83;1.40;;;12.80;99.90;;;;;;4929153;28;20040;-81
2024/02/16 01:08:08;;;;;;;2.60;1.00;;;12.80;99.90;;;;;;4910503;28;20131;-82
2024/02/16 01:10:34;;;;;;;1.30;1.00;;;12.80;99.90;;;;;;4922407;28;20144;-81
2024/02/16 01:12:59;;;;;;;4.80;1.65;;;12.80;99.90;;;;;;4927156;28;20482;-80
2024/02/16 01:15:25;;;;;;;3.47;1.60;;;12.90;99.90;;;;;;4911652;28;20042;-81
2024/02/16 01:17:50;;;;;;;1.88;0.90;;;12.80;99.90;;;;;;4943794;28;20043;-81
2024/02/16 01:20:16;;;;;;;3.60;1.30;;;12.80;99.90;;;;;;4942792;28;20042;-81
2024/02/16 01:22:41;;;;;;;2.80;0.90;;;12.80;99.90;;;;;;4943927;28;20039;-81
2024/02/16 01:25:08;;;;;;;2.50;1.40;;;12.80;99.90;;;;;;4913297;28;20031;-81
2024/02/16 01:27:35;;;;;;;3.30;1.20;;;12.80;99.90;;;;;;4970615;28;20669;-81
2024/02/16 01:30:00;;;;;;;2.88;1.02;;;12.80;99.90;;;;;;4943239;28;20148;-80
2024/02/16 01:32:26;;;;;;;1.67;1.13;;;12.80;99.90;;;;;;4909049;28;20027;-81
2024/02/16 01:34:52;;;;;;;2.42;1.25;;;12.80;99.90;;;;;;4907746;28;20432;-81
2024/02/16 01:37:17;;;;;;;4.03;1.08;;;12.80;99.90;;;;;;4942432;28;22762;-81
2024/02/16 01:39:44;;;;;;;3.92;1.40;;;12.80;99.90;;;;;;4925677;28;20058;-81
2024/02/16 01:42:10;;;;;;;2.30;1.17;;;12.80;99.90;;;;;;4926202;28;20031;-81
2024/02/16 01:44:35;;;;;;;3.35;1.20;;;12.80;99.90;;;;;;4926161;28;20039;-81
2024/02/16 01:47:01;;;;;;;3.67;1.25;;;12.80;99.90;;;;;;4910339;28;20047;-80
2024/02/16 01:49:27;;;;;;;1.75;1.40;;;12.80;99.90;;;;;;4943294;28;20039;-81
2024/02/16 01:51:52;;;;;;;2.45;1.10;;;12.80;99.90;;;;;;4928459;28;20133;-81
2024/02/16 01:54:19;;;;;;;1.95;1.30;;;12.80;99.90;;;;;;4927162;28;20123;-81
2024/02/16 01:56:44;;;;;;;3.90;1.17;;;12.90;99.90;;;;;;4923951;28;20480;-82
2024/02/16 01:59:10;;;;;;;5.60;1.27;;;12.80;99.90;;;;;;4911192;28;20042;-81
2024/02/16 02:01:36;;;;;;;6.47;1.80;;;12.80;99.90;;;;;;4910846;28;20165;-80
2024/02/16 02:04:02;;;;;;;3.67;1.27;;;12.80;99.90;;;;;;4925081;28;20042;-81
2024/02/16 02:06:27;;;;;;;1.73;1.42;;;12.80;99.90;;;;;;4927206;28;20039;-81
2024/02/16 02:08:53;;;;;;;4.25;1.33;;;12.80;99.90;;;;;;4940259;28;20063;-79
2024/02/16 02:11:19;;;;;;;2.03;1.20;;;12.80;99.90;;;;;;4926633;28;20039;-80
2024/02/16 02:13:44;;;;;;;2.75;1.48;;;12.80;99.90;;;;;;4924235;28;20098;-79
2024/02/16 02:16:10;;;;;;;2.58;1.33;;;12.70;99.90;;;;;;4924739;28;20055;-79
2024/02/16 02:18:36;;;;;;;2.28;1.00;;;12.80;99.90;;;;;;4923818;28;20034;-80
2024/02/16 02:21:01;;;;;;;5.22;1.63;;;12.80;99.90;;;;;;4942444;28;20511;-79
2024/02/16 02:23:27;;;;;;;2.35;1.05;;;12.80;99.90;;;;;;4937508;28;20043;-80
2024/02/16 02:25:52;;;;;;;2.78;1.08;;;12.80;99.90;;;;;;4940928;28;20123;-80
2024/02/16 02:28:23;;;;;;;2.55;1.17;;;12.80;99.90;;;;;;4940472;28;20035;-80
2024/02/16 02:30:49;;;;;;;3.38;1.50;;;12.80;99.90;;;;;;4922438;28;20511;-80
2024/02/16 02:33:15;;;;;;;2.42;1.50;;;12.80;99.90;;;;;;4923583;28;20032;-79
2024/02/16 02:35:40;;;;;;;3.65;1.10;;;12.80;99.90;;;;;;4940966;28;20693;-79
2024/02/16 02:38:06;;;;;;;2.55;1.55;;;12.80;99.90;;;;;;4910928;28;20035;-80
2024/02/16 02:40:32;;;;;;;4.25;1.20;;;12.80;99.90;;;;;;4940314;28;20130;-79
2024/02/16 02:42:57;;;;;;;3.55;1.42;;;12.90;99.90;;;;;;4927829;28;20496;-80
2024/02/16 02:45:23;;;;;;;3.13;1.50;;;12.90;99.90;;;;;;4927580;28;20395;-79
2024/02/16 02:47:49;;;;;;;4.05;1.60;;;12.80;99.90;;;;;;4940599;28;20032;-80
2024/02/16 02:50:15;;;;;;;4.45;1.70;;;12.90;99.90;;;;;;4942620;28;20035;-78
2024/02/16 02:52:41;;;;;;;5.30;1.40;;;12.90;99.90;;;;;;4912410;28;20516;-79
2024/02/16 02:55:07;;;;;;;2.78;1.30;;;12.90;99.90;;;;;;4924965;28;20054;-79
2024/02/16 02:57:33;;;;;;;4.97;1.33;;;12.90;99.90;;;;;;4926611;28;20043;-79
2024/02/16 03:00:10;;;;;;;4.97;1.65;;;12.90;99.90;;;;;;4904587;28;20043;-79
2024/02/16 03:02:37;;;;;;;5.07;1.27;;;12.90;99.90;;;;;;4924440;28;20726;-80
2024/02/16 03:05:03;;;;;;;2.50;1.20;;;12.90;99.90;;;;;;4925439;28;20036;-81
2024/02/16 03:07:29;;;;;;;2.60;1.30;;;12.90;99.90;;;;;;4939849;28;20043;-81
2024/02/16 03:09:54;;;;;;;4.18;1.27;;;12.90;99.90;;;;;;4928444;28;20090;-81
2024/02/16 03:12:20;;;;;;;2.10;1.42;;;12.80;99.90;;;;;;4941277;28;20457;-81
2024/02/16 03:14:45;;;;;;;2.65;1.30;;;12.90;99.90;;;;;;4938276;28;20119;-80
2024/02/16 03:17:11;;;;;;;2.78;1.42;;;12.90;99.90;;;;;;4910895;28;20493;-79
2024/02/16 03:19:36;;;;;;;2.17;1.10;;;12.90;99.90;;;;;;4940257;28;20097;-79
2024/02/16 03:22:02;;;;;;;1.95;1.35;;;12.90;99.90;;;;;;4928618;28;20094;-79
2024/02/16 03:24:28;;;;;;;4.15;1.27;;;12.90;99.90;;;;;;4941655;28;20039;-80
2024/02/16 03:26:53;;;;;;;4.85;2.45;;;12.90;99.90;;;;;;4943437;28;20513;-80
2024/02/16 03:29:19;;;;;;;5.97;1.65;;;12.90;99.90;;;;;;4939033;28;20023;-80
2024/02/16 03:31:44;;;;;;;2.47;1.20;;;12.90;99.90;;;;;;4923131;28;20055;-80
2024/02/16 03:34:10;;;;;;;2.95;1.15;;;12.90;99.90;;;;;;4924855;28;20030;-80
2024/02/16 03:36:35;;;;;;;5.85;1.98;;;12.80;99.90;;;;;;4939978;28;20119;-80
2024/02/16 03:39:01;;;;;;;2.85;1.10;;;12.80;99.90;;;;;;4922923;28;20047;-80
2024/02/16 03:41:26;;;;;;;2.45;1.08;;;12.80;99.90;;;;;;4927356;28;20031;-79
2024/02/16 03:43:53;;;;;;;3.33;1.25;;;12.80;99.90;;;;;;4926347;28;20039;-80
2024/02/16 03:46:19;;;;;;;3.03;1.40;;;12.80;99.90;;;;;;4922127;28;20130;-79
2024/02/16 03:48:44;;;;;;;2.10;1.15;;;12.80;99.90;;;;;;4908585;28;20114;-80
2024/02/16 03:51:10;;;;;;;2.50;1.23;;;12.80;99.90;;;;;;4924570;28;20046;-79
2024/02/16 03:53:36;;;;;;;1.92;1.20;;;12.80;99.90;;;;;;4941699;28;20028;-80
2024/02/16 03:56:01;;;;;;;3.75;1.30;;;12.80;99.90;;;;;;4909940;28;20043;-80
2024/02/16 03:58:27;;;;;;;6.63;1.40;;;12.80;99.90;;;;;;4914656;28;20042;-80
2024/02/16 04:00:55;;;;;;;3.15;1.20;;;12.70;99.90;;;;;;4930365;28;20058;-79
2024/02/16 04:03:21;;;;;;;3.15;1.35;;;12.80;99.90;;;;;;4929331;28;20313;-79
2024/02/16 04:05:46;;;;;;;2.83;1.23;;;12.70;99.90;;;;;;4944355;28;20405;-80
2024/02/16 04:08:12;;;;;;;4.10;1.33;;;12.70;99.90;;;;;;4928054;28;20039;-80
2024/02/16 04:10:37;;;;;;;3.70;1.50;;;12.90;99.90;;;;;;4941696;28;20031;-80
2024/02/16 04:13:03;;;;;;;1.75;1.42;;;12.70;99.90;;;;;;4924895;28;20449;-80
2024/02/16 04:15:29;;;;;;;5.72;1.60;;;12.70;99.90;;;;;;4955658;28;20050;-79
2024/02/16 04:17:54;;;;;;;2.15;1.42;;;12.70;99.90;;;;;;4929724;28;20055;-79
2024/02/16 04:20:20;;;;;;;2.80;1.27;;;12.70;99.90;;;;;;4942804;28;20051;-79
2024/02/16 04:22:45;;;;;;;2.88;1.30;;;12.70;99.90;;;;;;4925727;28;20350;-80
2024/02/16 04:25:11;;;;;;;2.20;1.55;;;12.70;99.90;;;;;;4934474;28;20070;-79
2024/02/16 04:27:37;;;;;;;1.75;1.38;;;12.70;99.90;;;;;;4943910;28;20425;-79
2024/02/16 04:30:03;;;;;;;3.72;1.23;;;12.70;99.90;;;;;;4943068;28;20141;-81
2024/02/16 04:32:29;;;;;;;4.60;1.65;;;12.70;99.90;;;;;;4932251;28;20035;-79
2024/02/16 04:34:58;;;;;;;4.35;1.42;;;12.70;99.90;;;;;;4929807;28;20418;-80
2024/02/16 04:37:25;;;;;;;4.57;1.38;;;12.70;99.90;;;;;;4929266;28;20036;-79
2024/02/16 04:39:50;;;;;;;2.85;1.00;;;12.70;99.90;;;;;;4913806;28;20122;-80
2024/02/16 04:42:16;;;;;;;3.83;1.52;;;12.70;99.90;;;;;;4925197;28;20302;-80
2024/02/16 04:44:42;;;;;;;3.58;1.65;;;12.60;99.90;;;;;;4944523;28;20480;-80
2024/02/16 04:47:08;;;;;;;2.03;1.17;;;12.70;99.90;;;;;;4924195;28;20042;-79
2024/02/16 04:49:33;;;;;;;4.15;1.42;;;12.70;99.90;;;;;;4928973;28;20043;-79
2024/02/16 04:51:59;;;;;;;2.95;1.27;;;12.70;99.90;;;;;;4936485;28;20028;-80
2024/02/16 04:54:24;;;;;;;3.50;1.42;;;12.70;99.90;;;;;;4911394;28;20035;-81
2024/02/16 04:56:50;;;;;;;2.42;1.10;;;12.70;99.90;;;;;;4939081;28;20039;-81
2024/02/16 04:59:19;;;;;;;3.80;1.60;;;12.70;99.90;;;;;;4911919;28;20106;-81
2024/02/16 05:01:47;;;;;;;2.25;1.35;;;12.70;99.90;;;;;;4924311;28;20066;-81
2024/02/16 05:04:16;;;;;;;3.25;1.65;;;12.70;99.90;;;;;;4944135;28;20032;-81
2024/02/16 05:06:42;;;;;;;2.55;1.20;;;12.70;99.90;;;;;;4925480;28;20086;-79
2024/02/16 05:09:08;;;;;;;5.40;1.38;;;12.70;99.90;;;;;;4923412;28;20027;-80
2024/02/16 05:11:34;;;;;;;2.60;1.33;;;12.70;99.90;;;;;;4942664;28;20043;-79
2024/02/16 05:13:59;;;;;;;3.90;1.40;;;12.60;99.90;;;;;;4930757;29;20699;-79
2024/02/16 05:16:25;;;;;;;1.88;1.42;;;12.50;99.90;;;;;;4927661;28;20090;-80
2024/02/16 05:18:51;;;;;;;3.60;1.70;;;12.60;99.90;;;;;;4943791;28;20378;-80
2024/02/16 05:21:17;;;;;;;4.10;1.67;;;12.60;99.90;;;;;;4924474;28;20122;-79
2024/02/16 05:23:42;;;;;;;3.13;1.60;;;12.60;99.90;;;;;;4941031;28;20039;-80
2024/02/16 05:26:08;;;;;;;5.25;1.42;;;12.60;99.90;;;;;;4925004;28;20133;-80
2024/02/16 05:28:34;;;;;;;2.53;1.27;;;12.60;99.90;;;;;;4921239;28;20038;-79
2024/02/16 05:31:05;;;;;;;4.00;1.65;;;12.60;99.90;;;;;;4931821;28;20054;-80
2024/02/16 05:33:30;;;;;;;2.05;1.40;;;12.50;99.90;;;;;;4928456;28;20074;-80
2024/02/16 05:35:58;;;;;;;1.80;1.23;;;12.60;99.90;;;;;;4924189;28;20067;-81
2024/02/16 05:38:40;;;;;;;3.05;1.17;;;12.60;99.90;;;;;;4924345;28;20074;-80
2024/02/16 05:41:06;;;;;;;1.90;1.45;;;12.60;99.90;;;;;;4925771;28;20103;-79
2024/02/16 05:43:33;;;;;;;2.17;1.35;;;12.60;99.90;;;;;;4940671;28;20043;-80
2024/02/16 05:45:59;;;;;;;2.55;1.55;;;12.50;99.90;;;;;;4926511;28;20054;-79
2024/02/16 05:48:27;;;;;;;2.92;1.27;;;12.50;99.90;;;;;;4909873;28;20708;-79
2024/02/16 05:50:53;;;;;;;2.25;1.40;;;12.60;99.90;;;;;;4923920;28;20039;-80
2024/02/16 05:53:18;;;;;;;3.00;1.77;;;12.50;99.90;;;;;;4910875;28;20050;-79
2024/02/16 05:55:44;;;;;;;2.85;1.50;;;12.50;99.90;;;;;;4927720;28;20031;-79
2024/02/16 05:58:12;;;;;;;2.90;1.75;;;12.50;99.90;;;;;;4924396;28;20046;-79
2024/02/16 06:00:37;;;;;;;6.65;1.98;;;12.50;99.90;;;;;;4925219;28;20102;-79
2024/02/16 06:03:03;;;;;;;2.88;1.50;;;12.50;99.90;;;;;;4942009;28;20035;-77
2024/02/16 06:05:28;;;;;;;2.97;1.70;;;12.50;99.90;;;;;;4931522;28;20046;-79
2024/02/16 06:07:56;;;;;;;4.70;1.80;;;12.40;99.90;;;;;;4922704;28;20035;-79
2024/02/16 06:10:22;;;;;;;2.00;1.50;;;12.50;99.90;;;;;;4941134;28;20043;-80
2024/02/16 06:12:48;;;;;;;2.50;1.60;;;12.40;99.90;;;;;;4923235;28;20081;-79
2024/02/16 06:15:14;;;;;;;5.90;1.92;;;12.40;99.90;;;;;;4922492;28;20493;-79
2024/02/16 06:17:40;;;;;;;6.40;2.03;;;12.40;99.90;;;;;;4925464;28;20035;-79
2024/02/16 06:20:09;;;;;;;4.47;1.88;;;12.30;99.90;;;;;;4939603;28;20043;-79
2024/02/16 06:22:35;;;;;;;4.63;1.73;;;12.30;99.90;;;;;;4926361;28;20035;-80
2024/02/16 06:25:00;;;;;;;5.35;2.08;;;12.30;99.90;;;;;;4940016;28;20050;-80
2024/02/16 06:27:26;;;;;;;4.90;2.25;;;12.30;99.90;;;;;;4941915;28;20044;-80
2024/02/16 06:29:51;;;;;;;3.53;1.70;;;12.40;99.90;;;;;;4926404;28;20082;-80
2024/02/16 06:32:17;;;;;;;4.35;1.52;;;12.30;99.90;;;;;;4939523;28;20031;-79
2024/02/16 06:34:45;;;;;;;2.40;1.77;;;12.30;99.90;;;;;;4938071;28;20035;-79
2024/02/16 06:37:11;;;;;;;2.95;1.80;;;12.30;99.90;;;;;;4911539;28;20039;-79
2024/02/16 06:39:36;;;;;;;2.63;1.85;;;12.30;99.90;;;;;;4940450;28;20315;-80
2024/02/16 06:42:02;;;;;;;2.67;1.52;;;12.30;99.90;;;;;;4921526;28;20039;-80
2024/02/16 06:44:27;;;;;;;4.28;1.75;;;12.30;99.90;;;;;;4939184;28;20046;-79
2024/02/16 06:46:53;;;;;;;5.05;1.90;;;12.40;99.90;;;;;;4938942;28;20068;-79
2024/02/16 06:49:20;;;;;;;4.35;1.90;;;12.40;99.90;;;;;;4938313;28;20036;-80
2024/02/16 06:51:46;;;;;;;6.07;2.13;;;12.40;99.90;;;;;;4922246;28;20122;-80
2024/02/16 06:54:11;;;;;;;3.25;2.28;;;12.40;99.90;;;;;;4908860;28;20685;-79
2024/02/16 06:56:37;;;;;;;4.63;1.70;;;12.40;99.90;;;;;;4903795;28;20520;-80
2024/02/16 06:59:03;;;;;;;5.30;1.70;;;12.40;99.90;;;;;;4906247;29;20075;-80
2024/02/16 07:01:29;;;;;;;3.42;1.80;;;12.50;99.90;;;;;;4909882;28;20534;-80
2024/02/16 07:03:54;;;;;;;6.68;2.10;;;12.40;99.90;;;;;;4922579;28;20083;-80
2024/02/16 07:06:20;;;;;;;5.35;1.55;;;12.40;99.90;;;;;;4910097;28;20046;-80
2024/02/16 07:08:45;;;;;;;2.97;1.83;;;12.40;99.90;;;;;;4924102;28;20136;-80
2024/02/16 07:11:11;;;;;;;8.35;2.28;;;12.40;99.90;;;;;;4910208;28;20036;-80
2024/02/16 07:13:40;;;;;;;4.57;2.20;;;12.40;99.90;;;;;;4921635;28;20584;-80
2024/02/16 07:16:09;;;;;;;2.60;1.23;;;12.40;99.90;;;;;;4921079;28;20130;-80
2024/02/16 07:18:35;;;;;;;5.47;2.05;;;12.40;99.90;;;;;;4920188;28;20469;-80
2024/02/16 07:21:00;;;;;;;3.38;1.90;;;12.50;99.90;;;;;;4907177;28;20090;-80
2024/02/16 07:23:26;;;;;;;3.65;1.80;;;12.50;99.90;;;;;;4921282;28;20071;-80
2024/02/16 07:25:55;;;;;;;2.78;1.83;;;12.60;99.90;;;;;;4926340;28;20054;-81
2024/02/16 07:28:20;;;;;;;5.55;1.85;;;12.50;99.90;;;;;;4923960;28;20055;-80
2024/02/16 07:30:46;;;;;;;6.05;1.98;;;12.60;99.90;;;;;;4911176;28;20546;-79
2024/02/16 07:33:12;;;;;;;4.03;2.22;;;12.60;99.90;;;;;;4930574;28;20043;-80
2024/02/16 07:35:38;;;;;;;3.22;1.90;;;12.60;99.90;;;;;;4940273;28;20405;-80
2024/02/16 07:38:04;;;;;;;4.25;1.95;;;12.60;99.90;;;;;;4924640;28;20061;-80
2024/02/16 07:40:30;;;;;;;2.88;1.75;;;12.60;99.90;;;;;;4940260;28;20032;-80
2024/02/16 07:42:56;;;;;;;4.57;2.22;;;12.70;99.90;;;;;;4943809;28;20035;-79
2024/02/16 07:45:22;;;;;;;7.85;2.08;;;12.70;99.90;;;;;;4927702;28;20071;-79
2024/02/16 07:47:50;;;;;;;6.15;2.15;;;12.70;99.90;;;;;;4943247;28;20074;-79
2024/02/16 07:50:22;;;;;;;3.35;1.52;;;12.80;99.90;;;;;;4941412;28;20093;-80
2024/02/16 07:52:48;;;;;;;4.38;1.92;;;12.80;99.90;;;;;;4910102;28;20648;-80
2024/02/16 07:55:14;;;;;;;3.22;1.88;;;12.90;99.90;;;;;;4924207;28;20577;-79
2024/02/16 07:57:40;;;;;;;7.47;2.38;;;12.90;99.90;;;;;;4926010;28;20126;-79
2024/02/16 08:00:06;;;;;;;4.03;1.42;;;12.90;99.90;;;;;;4943234;28;20460;-79
2024/02/16 08:02:32;;;;;;;3.15;1.80;;;13.00;99.90;;;;;;4909413;28;20146;-79
2024/02/16 08:04:58;;;;;;;4.38;1.67;;;13.10;99.90;;;;;;4945533;28;20545;-80
2024/02/16 08:07:24;;;;;;;6.20;1.80;;;13.10;99.90;;;;;;4926788;28;20047;-79
2024/02/16 08:09:49;;;;;;;5.25;2.17;;;13.10;99.90;;;;;;4913468;28;20035;-80
2024/02/16 08:12:15;;;;;;;2.65;2.00;;;13.20;99.90;;;;;;4928068;28;20039;-80
2024/02/16 08:14:41;;;;;;;3.13;1.40;;;13.30;99.90;;;;;;4930598;28;20039;-79
2024/02/16 08:17:07;;;;;;;5.53;2.30;;;13.30;99.90;;;;;;4913318;28;20090;-80
2024/02/16 08:19:34;;;;;;;3.50;1.88;;;13.30;99.90;;;;;;4925008;28;20042;-80
2024/02/16 08:22:00;;;;;;;9.02;2.72;;;13.40;99.90;;;;;;4930872;28;20041;-79
2024/02/16 08:24:26;;;;;;;6.10;2.13;;;13.40;99.90;;;;;;4929345;28;20031;-79
2024/02/16 08:26:53;;;;;;;3.83;1.65;;;13.40;99.90;;;;;;4929084;28;20498;-79
2024/02/16 08:29:20;;;;;;;5.57;1.70;;;13.50;99.90;;;;;;4942599;28;20504;-79
2024/02/16 08:31:52;;;;;;;5.30;1.92;;;13.50;99.90;;;;;;4928137;28;20024;-80
2024/02/16 08:34:17;;;;;;;5.43;1.60;;;13.60;99.90;;;;;;4942662;28;20032;-79
2024/02/16 08:36:49;;;;;;;11.65;2.53;;;13.60;99.90;;;;;;4927015;28;20039;-79
2024/02/16 08:39:15;;;;;;;7.32;2.03;;;13.60;99.90;;;;;;4924146;28;20041;-79
2024/02/16 08:41:41;;;;;;;3.50;1.77;;;13.70;99.90;;;;;;4940360;28;20028;-79
2024/02/16 08:44:10;;;;;;;4.35;1.55;;;13.70;99.90;;;;;;4923518;28;20035;-79
2024/02/16 08:46:38;;;;;;;5.28;2.05;;;13.70;99.90;;;;;;4925951;28;20053;-79
2024/02/16 08:49:04;;;;;;;4.88;1.83;;;13.70;99.90;;;;;;4943344;28;20389;-79
2024/02/16 08:51:31;;;;;;;6.40;1.80;;;13.80;99.90;;;;;;4942523;28;20059;-79
2024/02/16 08:53:57;;;;;;;4.32;1.52;;;13.80;99.90;;;;;;4943793;28;20032;-80
2024/02/16 08:56:23;;;;;;;7.13;1.80;;;13.80;99.90;;;;;;4940899;28;20417;-79
2024/02/16 08:58:48;;;;;;;5.78;1.58;;;13.80;99.90;;;;;;4910064;28;20070;-79
2024/02/16 09:01:15;;;;;;;4.53;2.28;;;13.90;99.90;;;;;;4937709;28;20075;-80
2024/02/16 09:03:41;;;;;;;5.75;2.30;;;13.90;99.90;;;;;;4942896;28;20042;-79
2024/02/16 09:06:06;;;;;;;2.42;1.73;;;13.90;99.90;;;;;;4910529;28;20103;-79
2024/02/16 09:08:34;;;;;;;5.80;1.90;;;14.00;99.90;;;;;;4921589;28;20063;-78
2024/02/16 09:11:04;;;;;;;4.70;1.88;;;14.00;99.90;;;;;;4911836;28;20062;-79
2024/02/16 09:13:33;;;;;;;3.83;1.80;;;14.10;99.90;;;;;;4941854;28;20043;-78
2024/02/16 09:15:59;;;;;;;7.20;2.00;;;14.10;99.90;;;;;;4913428;28;20106;-79
2024/02/16 09:18:26;;;;;;;3.17;1.75;;;14.10;99.90;;;;;;4943209;28;20059;-79
2024/02/16 09:20:53;;;;;;;8.07;2.10;;;14.10;99.90;;;;;;4940599;28;20038;-78
2024/02/16 09:23:18;;;;;;;3.22;1.67;;;14.20;99.90;;;;;;4909786;28;20043;-79
2024/02/16 09:25:45;;;;;;;2.58;1.48;;;14.30;99.90;;;;;;4912588;28;20385;-79
2024/02/16 09:28:12;;;;;;;4.35;2.20;;;14.30;99.90;;;;;;4940086;28;20105;-78
2024/02/16 09:30:38;;;;;;;4.97;2.28;;;14.20;99.90;;;;;;4926575;28;20054;-79
2024/02/16 09:33:04;;;;;;;4.35;1.50;;;14.30;99.90;;;;;;4922487;28;20557;-79
2024/02/16 09:35:30;;;;;;;3.20;2.35;;;14.30;99.90;;;;;;4926046;28;20454;-79
2024/02/16 09:37:56;;;;;;;8.07;2.25;;;14.40;99.90;;;;;;4936969;28;20035;-79
2024/02/16 09:40:22;;;;;;;3.13;2.30;;;14.40;99.90;;;;;;4921985;28;20039;-80
2024/02/16 09:42:49;;;;;;;3.50;2.15;;;14.50;99.90;;;;;;4926372;28;20035;-79
2024/02/16 09:45:15;;;;;;;9.00;2.17;;;14.50;99.90;;;;;;4940329;28;20043;-79
2024/02/16 09:47:44;;;;;;;4.55;1.75;;;14.70;99.90;;;;;;4911712;28;20520;-79
2024/02/16 09:50:11;;;;;;;7.00;2.00;;;14.60;99.90;;;;;;4935523;28;20038;-79
2024/02/16 09:52:37;;;;;;;3.65;1.70;;;14.60;99.90;;;;;;4936832;28;20027;-79
2024/02/16 09:55:03;;;;;;;4.32;2.30;;;14.60;99.90;;;;;;4923118;28;20156;-79
2024/02/16 09:57:28;;;;;;;4.60;2.45;;;14.70;99.90;;;;;;4940325;28;20035;-79
2024/02/16 09:59:54;;;;;;;4.05;1.60;;;14.70;99.90;;;;;;4928424;28;20516;-79
2024/02/16 10:02:20;;;;;;;10.77;2.17;;;14.80;99.90;;;;;;4937837;28;20455;-80
2024/02/16 10:04:46;;;;;;;5.30;1.83;;;14.90;99.90;;;;;;4922738;28;20039;-78
2024/02/16 10:07:13;;;;;;;5.40;2.08;;;15.00;99.90;;;;;;4942231;28;20143;-79
2024/02/16 10:09:39;;;;;;;1.65;1.02;;;15.00;99.90;;;;;;4925998;28;20035;-80
2024/02/16 10:12:05;;;;;;;5.50;1.80;;;15.00;99.90;;;;;;4917135;28;20272;-80
2024/02/16 10:14:32;;;;;;;3.17;0.93;;;15.00;99.90;;;;;;4940909;28;20031;-78
2024/02/16 10:17:02;;;;;;;4.82;1.85;;;15.00;99.90;;;;;;4942135;28;20671;-79
2024/02/16 10:19:28;;;;;;;5.68;1.90;;;15.10;99.90;;;;;;4922837;28;20042;-79
2024/02/16 10:21:54;;;;;;;4.47;1.98;;;15.10;99.90;;;;;;4925146;28;20694;-79
2024/02/16 10:24:21;;;;;;;3.65;2.20;;;15.00;99.90;;;;;;4910404;28;20020;-79
2024/02/16 10:26:47;;;;;;;5.20;2.20;;;15.10;99.90;;;;;;4928690;28;20693;-79
2024/02/16 10:29:16;;;;;;;3.92;1.48;;;15.10;99.90;;;;;;4917689;28;20031;-79
2024/02/16 10:31:42;;;;;;;6.40;1.80;;;15.10;99.90;;;;;;4957155;28;20040;-79
2024/02/16 10:34:09;;;;;;;4.25;2.30;;;15.10;99.90;;;;;;4939824;28;20035;-79
2024/02/16 10:36:36;;;;;;;2.95;2.17;;;15.10;99.90;;;;;;4936553;28;20107;-79
2024/02/16 10:39:05;;;;;;;5.43;2.70;;;15.20;99.90;;;;;;4939092;28;20032;-79
2024/02/16 10:41:35;;;;;;;5.75;2.00;;;15.10;99.90;;;;;;4939342;28;20122;-79
2024/02/16 10:44:02;;;;;;;8.23;2.17;;;15.20;99.90;;;;;;4922394;28;20206;-79
2024/02/16 10:46:27;;;;;;;5.13;2.42;;;15.40;99.90;;;;;;4910625;28;20043;-78
2024/02/16 10:48:53;;;;;;;5.00;2.30;;;15.30;99.90;;;;;;4923041;28;20445;-79
2024/02/16 10:51:44;;;;;;;3.25;1.30;;;15.40;99.90;;;;;;4909039;28;20047;-79
2024/02/16 10:54:10;;;;;;;4.13;1.80;;;15.40;99.90;;;;;;4938244;28;20043;-79
2024/02/16 10:56:38;;;;;;;6.20;2.53;;;15.50;99.90;;;;;;4924352;28;20114;-79
2024/02/16 10:59:04;;;;;;;4.80;2.35;;;15.50;99.90;;;;;;4921895;28;20585;-79
2024/02/16 11:01:36;;;;;;;7.18;1.90;;;15.60;99.90;;;;;;4941157;28;20090;-79
2024/02/16 11:04:03;;;;;;;6.05;1.92;;;15.70;99.90;;;;;;4921832;28;20053;-79
2024/02/16 11:06:29;;;;;;;3.70;1.45;;;15.70;99.90;;;;;;4921640;28;20090;-78
2024/02/16 11:09:02;;;;;;;6.93;2.42;;;15.70;99.90;;;;;;4926364;28;20405;-79
2024/02/16 11:11:27;;;;;;;2.45;1.48;;;15.70;99.90;;;;;;4925839;28;20425;-79
2024/02/16 11:13:55;;;;;;;6.95;2.20;;;15.70;99.90;;;;;;4941536;28;20031;-80
2024/02/16 11:16:21;;;;;;;5.00;1.55;;;15.80;99.90;;;;;;4941233;28;20040;-81
2024/02/16 11:18:48;;;;;;;5.07;1.92;;;15.80;99.90;;;;;;4933755;28;20122;-80
2024/02/16 11:21:17;;;;;;;4.55;1.95;;;15.70;99.90;;;;;;4940729;28;20086;-80
2024/02/16 11:23:43;;;;;;;5.25;1.85;;;15.80;99.90;;;;;;4911293;28;20078;-81
2024/02/16 11:26:17;;;;;;;4.82;2.40;;;15.60;99.90;;;;;;4922528;28;20035;-81
2024/02/16 11:28:43;;;;;;;8.73;2.90;;;15.50;99.90;;;;;;4936607;28;20717;-81
2024/02/16 11:31:09;;;;;;;3.50;2.22;;;15.60;99.90;;;;;;4925103;28;20050;-79
2024/02/16 11:33:34;;;;;;;4.80;2.35;;;15.60;99.90;;;;;;4921642;28;20039;-79
2024/02/16 11:36:01;;;;;;;4.90;1.52;;;15.70;99.90;;;;;;4926084;28;20394;-79
2024/02/16 11:38:30;;;;;;;6.30;2.10;;;15.60;99.90;;;;;;4925019;28;20469;-79
2024/02/16 11:41:00;;;;;;;4.05;1.42;;;15.60;99.90;;;;;;4910029;28;20657;-79
2024/02/16 11:43:26;;;;;;;4.97;1.90;;;15.50;99.90;;;;;;4926968;28;20050;-79
2024/02/16 11:45:52;;;;;;;7.00;2.22;;;15.60;99.90;;;;;;4922367;28;20035;-79
2024/02/16 11:48:24;;;;;;;4.38;1.85;;;15.40;99.90;;;;;;4925298;28;20433;-79
2024/02/16 11:50:50;;;;;;;5.00;2.50;;;15.50;99.90;;;;;;4911369;28;20039;-79
2024/02/16 11:53:19;;;;;;;6.75;3.10;;;15.30;99.90;;;;;;4937190;28;20043;-79
2024/02/16 11:55:50;;;;;;;7.40;2.22;;;15.40;99.90;;;;;;4909501;28;20434;-79
2024/02/16 11:58:18;;;;;;;7.05;2.10;;;15.30;99.90;;;;;;4908251;28;20035;-79
2024/02/16 12:00:44;;;;;;;5.53;2.45;;;15.30;99.90;;;;;;4924145;28;20082;-80
2024/02/16 12:03:10;;;;;;;8.18;2.95;;;15.40;99.90;;;;;;4926010;28;20078;-80
2024/02/16 12:05:37;;;;;;;9.80;2.90;;;15.30;99.90;;;;;;4921949;28;20382;-79
2024/02/16 12:08:02;;;;;;;8.35;2.92;;;15.30;99.90;;;;;;4938104;28;20062;-79
2024/02/16 12:10:29;;;;;;;6.85;2.65;;;15.30;99.90;;;;;;4941055;28;20040;-79
2024/02/16 12:12:54;;;;;;;6.03;2.25;;;15.20;99.90;;;;;;4906617;29;20059;-79
2024/02/16 12:15:22;;;;;;;5.78;2.10;;;15.20;99.90;;;;;;4925071;28;20125;-79
2024/02/16 12:17:59;;;;;;;8.82;2.63;;;15.20;99.90;;;;;;4924584;28;20047;-80
2024/02/16 12:20:25;;;;;;;12.13;2.88;;;15.10;99.90;;;;;;4929062;28;20102;-80
2024/02/16 12:22:50;;;;;;;4.38;2.55;;;15.10;99.90;;;;;;4926020;28;20043;-79
2024/02/16 12:25:16;;;;;;;7.53;2.33;;;15.20;99.90;;;;;;4928568;28;20098;-79
2024/02/16 12:27:41;;;;;;;4.07;1.85;;;15.30;99.90;;;;;;4925652;28;20113;-79
2024/02/16 12:30:09;;;;;;;6.35;1.92;;;15.10;99.90;;;;;;4926625;28;20085;-79
2024/02/16 12:32:34;;;;;;;4.50;2.28;;;15.00;99.90;;;;;;4925018;28;20031;-80
2024/02/16 12:35:00;;;;;;;7.10;2.88;;;15.00;99.90;;;;;;4941584;28;20035;-80
2024/02/16 12:37:25;;;;;;;6.10;2.60;;;14.90;99.90;;;;;;4925124;28;20555;-79
2024/02/16 12:39:51;;;;;;;10.80;2.95;;;15.10;99.90;;;;;;4926428;28;20586;-79